Time;durP1;ratioP1;P1;durP2;ratioP2;P2;SDS_P1;SDS_P2;PMS_P1;PMS_P2;Temp;Humidity;BMP_temperature;BMP_pressure;BME280_temperature;BME280_humidity;BME280_pressure;Samples;Min_cycle;Max_cycle;Signal;HPM_P1;HPM_P2
2023/06/04 00:00:11;;;;;;;7.15;6.55;;;;;;;17.02;91.74;96423.63;5050934;28;20290;-61
2023/06/04 00:02:37;;;;;;;7.32;6.53;;;;;;;16.96;92.18;96424.38;5047258;28;20220;-60
2023/06/04 00:05:05;;;;;;;7.93;6.25;;;;;;;16.90;93.18;96426.75;5045173;28;20219;-61
2023/06/04 00:07:31;;;;;;;7.53;6.88;;;;;;;16.88;91.97;96423.47;5045302;28;20203;-60
2023/06/04 00:09:58;;;;;;;8.98;6.70;;;;;;;16.85;92.30;96423.84;5044265;28;20242;-63
2023/06/04 00:12:24;;;;;;;7.03;6.32;;;;;;;16.85;93.58;96418.50;5050693;28;20226;-61
2023/06/04 00:14:52;;;;;;;7.20;6.30;;;;;;;16.78;94.95;96420.25;5053321;28;20211;-62
2023/06/04 00:17:18;;;;;;;8.00;6.60;;;;;;;16.84;93.00;96418.69;5052959;28;20887;-61
2023/06/04 00:19:45;;;;;;;7.25;6.55;;;;;;;16.76;94.39;96413.44;5053903;28;20214;-61
2023/06/04 00:22:11;;;;;;;6.70;6.20;;;;;;;16.68;95.92;96417.06;5047880;28;20303;-62
2023/06/04 00:24:39;;;;;;;8.60;6.97;;;;;;;16.73;94.16;96419.16;5051673;28;20218;-61
2023/06/04 00:27:06;;;;;;;6.45;5.85;;;;;;;16.65;94.14;96421.94;5047314;28;20199;-62
2023/06/04 00:29:32;;;;;;;7.45;6.85;;;;;;;16.64;93.49;96414.94;5047401;28;20202;-61
2023/06/04 00:32:00;;;;;;;7.22;6.53;;;;;;;16.52;95.00;96419.06;5046402;28;20208;-61
2023/06/04 00:34:27;;;;;;;7.00;6.20;;;;;;;16.50;94.13;96413.91;5044976;28;20258;-60
2023/06/04 00:36:53;;;;;;;7.25;6.53;;;;;;;16.47;96.78;96414.28;5043041;28;20216;-59
2023/06/04 00:39:20;;;;;;;8.65;6.70;;;;;;;16.48;97.15;96417.75;5041153;28;20211;-60
2023/06/04 00:41:47;;;;;;;6.93;6.22;;;;;;;16.47;97.37;96419.63;5040753;28;20195;-60
2023/06/04 00:44:13;;;;;;;6.80;5.90;;;;;;;16.50;97.05;96424.59;5041256;28;20550;-60
2023/06/04 00:46:40;;;;;;;8.98;6.47;;;;;;;16.38;96.58;96416.22;5040616;28;20306;-60
2023/06/04 00:49:08;;;;;;;7.25;6.60;;;;;;;16.30;96.56;96418.13;5040825;28;20206;-60
2023/06/04 00:51:34;;;;;;;8.53;7.00;;;;;;;16.29;97.72;96420.00;5040746;28;20194;-61
2023/06/04 00:54:08;;;;;;;7.28;6.57;;;;;;;16.27;97.40;96416.66;5040729;28;20188;-60
2023/06/04 00:56:35;;;;;;;7.72;7.03;;;;;;;16.30;96.35;96420.81;5039992;28;20650;-59
2023/06/04 00:59:01;;;;;;;7.10;6.32;;;;;;;16.26;96.72;96427.53;5044238;28;20242;-60
2023/06/04 01:01:46;;;;;;;8.90;7.55;;;;;;;16.19;96.58;96415.94;5044611;28;20198;-60
2023/06/04 01:04:18;;;;;;;8.25;7.05;;;;;;;16.19;98.20;96426.63;5044713;28;20206;-62
2023/06/04 01:06:45;;;;;;;8.07;7.30;;;;;;;16.22;96.67;96420.91;5044303;28;20276;-61
2023/06/04 01:09:11;;;;;;;8.68;7.35;;;;;;;16.23;96.25;96423.38;5044452;28;20671;-59
2023/06/04 01:11:40;;;;;;;8.63;7.32;;;;;;;16.18;98.57;96430.28;5044429;28;20231;-60
2023/06/04 01:14:09;;;;;;;7.35;6.75;;;;;;;16.17;98.45;96415.28;5044564;28;20203;-59
2023/06/04 01:16:39;;;;;;;8.60;7.30;;;;;;;16.20;98.44;96429.09;5044193;28;20293;-60
2023/06/04 01:19:21;;;;;;;8.25;7.43;;;;;;;16.23;97.27;96430.56;5044507;28;20573;-60
2023/06/04 01:21:50;;;;;;;7.57;6.90;;;;;;;16.21;97.66;96432.59;5044114;28;20286;-60
2023/06/04 01:24:18;;;;;;;7.93;7.10;;;;;;;16.19;96.44;96435.44;5044383;28;20316;-60
2023/06/04 01:26:45;;;;;;;7.63;6.93;;;;;;;16.15;98.62;96430.66;5044593;28;20211;-60
2023/06/04 01:29:12;;;;;;;7.82;7.07;;;;;;;16.20;97.57;96430.91;5045843;28;20208;-61
2023/06/04 01:31:40;;;;;;;10.27;7.63;;;;;;;16.19;98.30;96432.75;5048181;28;20211;-60
2023/06/04 01:34:08;;;;;;;8.40;7.60;;;;;;;16.20;98.16;96433.59;5047981;28;20337;-60
2023/06/04 01:36:35;;;;;;;9.07;7.82;;;;;;;16.20;97.37;96437.09;5044042;28;20663;-60
2023/06/04 01:39:03;;;;;;;7.22;6.35;;;;;;;16.04;96.36;96439.94;5044184;28;20383;-60
2023/06/04 01:41:31;;;;;;;7.80;7.00;;;;;;;15.99;97.15;96430.81;5044383;28;20652;-60
2023/06/04 01:43:57;;;;;;;9.35;6.75;;;;;;;15.96;97.67;96444.50;5046436;28;20232;-59
2023/06/04 01:46:24;;;;;;;8.20;7.00;;;;;;;15.99;99.01;96436.13;5047961;28;20211;-60
2023/06/04 01:48:50;;;;;;;7.45;6.68;;;;;;;15.94;99.56;96434.03;5052540;28;20207;-60
2023/06/04 01:51:18;;;;;;;7.18;6.55;;;;;;;15.94;99.59;96439.38;5054050;28;20276;-60
2023/06/04 01:53:44;;;;;;;7.30;6.53;;;;;;;15.94;99.85;96432.16;5044835;28;20195;-59
2023/06/04 01:56:12;;;;;;;7.00;6.40;;;;;;;15.95;98.00;96427.66;5044023;28;20617;-60
2023/06/04 01:58:40;;;;;;;6.95;6.35;;;;;;;15.90;98.76;96444.25;5043832;28;20218;-59
2023/06/04 02:01:06;;;;;;;7.47;6.78;;;;;;;15.82;98.18;96441.63;5043388;28;20407;-58
2023/06/04 02:03:36;;;;;;;7.93;6.90;;;;;;;15.76;100.00;96447.69;5043735;28;20708;-60
2023/06/04 02:06:03;;;;;;;7.47;6.38;;;;;;;15.85;99.99;96448.44;5043556;28;20303;-60
2023/06/04 02:08:30;;;;;;;6.85;6.28;;;;;;;15.87;99.07;96452.56;5043086;28;20199;-59
2023/06/04 02:10:57;;;;;;;7.75;7.05;;;;;;;15.85;99.37;96451.09;5040030;28;20247;-59
2023/06/04 02:13:24;;;;;;;7.20;6.50;;;;;;;15.84;100.00;96452.94;5033345;28;20640;-58
2023/06/04 02:15:51;;;;;;;7.63;6.93;;;;;;;15.79;100.00;96455.34;5032803;28;20204;-60
2023/06/04 02:18:21;;;;;;;7.40;6.63;;;;;;;15.80;100.00;96454.31;5032644;28;20212;-59
2023/06/04 02:20:48;;;;;;;7.60;6.25;;;;;;;15.84;99.46;96458.28;5033302;28;20219;-60
2023/06/04 02:23:16;;;;;;;8.98;6.78;;;;;;;15.75;98.89;96456.69;5033020;28;20636;-60
2023/06/04 02:25:44;;;;;;;7.20;6.50;;;;;;;15.73;98.90;96458.69;5033145;28;21374;-59
2023/06/04 02:28:11;;;;;;;7.80;7.00;;;;;;;15.72;100.00;96464.22;5033815;28;20227;-59
2023/06/04 02:30:39;;;;;;;6.97;6.30;;;;;;;15.69;100.00;96457.41;5032983;28;20204;-59
2023/06/04 02:33:09;;;;;;;8.20;6.78;;;;;;;15.67;100.00;96456.75;5033451;28;20235;-59
2023/06/04 02:35:36;;;;;;;6.97;6.38;;;;;;;15.71;100.00;96455.38;5033480;28;20199;-60
2023/06/04 02:38:02;;;;;;;9.00;6.28;;;;;;;15.73;100.00;96453.38;5035789;28;20195;-60
2023/06/04 02:40:30;;;;;;;7.03;6.30;;;;;;;15.68;100.00;96453.09;5035926;28;20208;-59
2023/06/04 02:42:57;;;;;;;7.35;6.57;;;;;;;15.65;100.00;96458.78;5035463;28;20555;-59
2023/06/04 02:45:23;;;;;;;7.38;6.68;;;;;;;15.54;100.00;96458.38;5032771;28;20231;-59
2023/06/04 02:47:51;;;;;;;8.45;6.30;;;;;;;15.56;100.00;96465.16;5032931;28;20210;-59
2023/06/04 02:50:18;;;;;;;8.43;7.28;;;;;;;15.54;100.00;96461.03;5032457;28;20200;-60
2023/06/04 02:52:44;;;;;;;7.45;6.70;;;;;;;15.54;100.00;96464.53;5032900;28;20254;-59
2023/06/04 02:55:12;;;;;;;7.00;6.20;;;;;;;15.49;100.00;96458.06;5033030;28;20203;-58
2023/06/04 02:57:40;;;;;;;8.63;6.70;;;;;;;15.44;100.00;96467.38;5032978;28;20207;-59
2023/06/04 03:00:12;;;;;;;7.47;6.67;;;;;;;15.46;100.00;96467.22;5032257;28;20400;-59
2023/06/04 03:02:42;;;;;;;7.38;6.78;;;;;;;15.51;100.00;96470.22;5033022;28;21319;-59
2023/06/04 03:05:12;;;;;;;7.55;6.85;;;;;;;15.48;100.00;96467.06;5032850;28;20559;-59
2023/06/04 03:07:39;;;;;;;7.43;6.82;;;;;;;15.40;100.00;96478.59;5032757;28;20207;-58
2023/06/04 03:10:06;;;;;;;7.27;6.63;;;;;;;15.46;100.00;96467.22;5032820;28;20204;-60
2023/06/04 03:12:33;;;;;;;6.88;6.28;;;;;;;15.37;100.00;96478.94;5031911;28;20267;-59
2023/06/04 03:14:59;;;;;;;7.55;6.75;;;;;;;15.42;100.00;96474.72;5032173;28;20207;-59
2023/06/04 03:17:27;;;;;;;8.23;7.15;;;;;;;15.37;100.00;96481.63;5032647;28;20205;-59
2023/06/04 03:19:55;;;;;;;6.90;6.30;;;;;;;15.46;100.00;96483.19;5032058;28;20664;-60
2023/06/04 03:22:23;;;;;;;11.70;8.45;;;;;;;15.36;100.00;96482.59;5032357;28;20204;-60
2023/06/04 03:24:52;;;;;;;7.53;6.80;;;;;;;15.35;100.00;96489.75;5032294;28;20737;-62
2023/06/04 03:27:18;;;;;;;6.75;6.15;;;;;;;15.32;100.00;96491.94;5032206;28;20207;-60
2023/06/04 03:29:45;;;;;;;7.83;7.07;;;;;;;15.31;100.00;96483.13;5032634;28;20629;-60
2023/06/04 03:32:13;;;;;;;7.07;6.47;;;;;;;15.32;100.00;96487.47;5031926;28;20208;-60
2023/06/04 03:34:40;;;;;;;7.10;6.40;;;;;;;15.25;100.00;96491.00;5032241;28;20262;-60
2023/06/04 03:37:07;;;;;;;7.95;6.30;;;;;;;15.29;100.00;96497.63;5031724;28;20232;-59
2023/06/04 03:39:34;;;;;;;9.80;6.93;;;;;;;15.27;100.00;96502.28;5032315;28;20208;-61
2023/06/04 03:42:01;;;;;;;7.70;7.03;;;;;;;15.30;100.00;96501.97;5031882;28;20207;-59
2023/06/04 03:44:27;;;;;;;7.20;6.57;;;;;;;15.27;100.00;96508.47;5032209;28;20223;-60
2023/06/04 03:46:54;;;;;;;7.63;7.03;;;;;;;15.31;100.00;96516.94;5031386;28;20261;-59
2023/06/04 03:49:21;;;;;;;7.40;6.78;;;;;;;15.31;100.00;96516.94;5031540;28;20857;-60
2023/06/04 03:51:48;;;;;;;7.17;6.57;;;;;;;15.31;100.00;96517.75;5031944;28;20200;-59
2023/06/04 03:54:17;;;;;;;7.18;6.45;;;;;;;15.34;100.00;96525.41;5031617;28;20210;-59
2023/06/04 03:56:45;;;;;;;7.30;6.68;;;;;;;15.33;100.00;96520.25;5031799;28;20208;-60
2023/06/04 03:59:11;;;;;;;7.33;6.47;;;;;;;15.36;100.00;96514.59;5031485;28;20207;-60
2023/06/04 04:01:38;;;;;;;7.20;6.50;;;;;;;15.35;100.00;96521.75;5031636;28;20204;-60
2023/06/04 04:04:05;;;;;;;7.13;6.47;;;;;;;15.40;100.00;96523.88;5031254;28;20252;-61
2023/06/04 04:06:32;;;;;;;7.30;6.57;;;;;;;15.38;100.00;96516.06;5031546;28;20220;-61
2023/06/04 04:08:59;;;;;;;7.13;6.43;;;;;;;15.46;100.00;96520.50;5031549;28;20204;-60
2023/06/04 04:11:26;;;;;;;7.45;6.75;;;;;;;15.51;100.00;96525.34;5031195;28;20227;-60
2023/06/04 04:13:54;;;;;;;7.03;6.43;;;;;;;15.50;100.00;96519.19;5031496;28;21445;-60
2023/06/04 04:16:20;;;;;;;7.53;6.82;;;;;;;15.53;100.00;96520.66;5031344;28;20196;-60
2023/06/04 04:18:47;;;;;;;6.75;6.13;;;;;;;15.54;100.00;96528.50;5031363;28;20218;-61
2023/06/04 04:21:13;;;;;;;6.30;5.70;;;;;;;15.59;100.00;96530.63;5031365;28;20218;-60
2023/06/04 04:23:40;;;;;;;7.30;6.60;;;;;;;15.59;100.00;96515.44;5031422;28;20207;-61
2023/06/04 04:26:08;;;;;;;6.93;6.32;;;;;;;15.61;100.00;96524.13;5031596;28;21260;-59
2023/06/04 04:28:34;;;;;;;6.82;6.03;;;;;;;15.60;100.00;96519.78;5031021;28;20632;-61
2023/06/04 04:31:02;;;;;;;8.15;6.80;;;;;;;15.65;100.00;96528.09;5030823;28;20632;-61
2023/06/04 04:33:30;;;;;;;7.30;6.38;;;;;;;15.68;100.00;96525.06;5030618;28;20243;-60
2023/06/04 04:35:57;;;;;;;7.07;6.43;;;;;;;15.69;100.00;96528.56;5031714;28;20204;-60
2023/06/04 04:38:24;;;;;;;6.97;6.38;;;;;;;15.64;100.00;96526.41;5031319;28;20667;-60
2023/06/04 04:40:51;;;;;;;7.13;6.43;;;;;;;15.70;100.00;96522.22;5031238;28;20200;-60
2023/06/04 04:43:18;;;;;;;6.93;6.22;;;;;;;15.77;100.00;96536.47;5031298;28;20203;-60
2023/06/04 04:45:44;;;;;;;7.10;6.40;;;;;;;15.87;100.00;96540.56;5030953;28;20838;-61
2023/06/04 04:48:12;;;;;;;7.50;6.78;;;;;;;15.98;100.00;96538.53;5030782;28;20211;-61
2023/06/04 04:50:39;;;;;;;6.55;6.05;;;;;;;16.08;100.00;96542.59;5030773;28;20214;-60
2023/06/04 04:53:05;;;;;;;9.70;6.95;;;;;;;16.16;100.00;96544.34;5031102;28;20537;-61
2023/06/04 04:55:31;;;;;;;7.85;6.68;;;;;;;16.25;100.00;96551.28;5031386;28;20671;-60
2023/06/04 04:57:58;;;;;;;6.63;6.05;;;;;;;16.34;100.00;96544.84;5032431;28;20208;-61
2023/06/04 05:00:24;;;;;;;6.85;6.15;;;;;;;16.47;100.00;96542.41;5030903;28;20219;-61
2023/06/04 05:02:51;;;;;;;6.70;6.10;;;;;;;16.54;100.00;96548.69;5031052;28;20199;-61
2023/06/04 05:05:18;;;;;;;7.32;6.18;;;;;;;16.61;100.00;96546.13;5030821;28;20254;-61
2023/06/04 05:07:45;;;;;;;7.15;6.45;;;;;;;16.63;99.43;96557.44;5030953;28;20280;-61
2023/06/04 05:10:12;;;;;;;7.63;6.57;;;;;;;16.66;100.00;96546.41;5031192;28;20206;-60
2023/06/04 05:12:39;;;;;;;6.80;6.10;;;;;;;16.75;99.96;96553.34;5038688;28;20301;-59
2023/06/04 05:15:06;;;;;;;7.47;6.72;;;;;;;16.78;98.58;96551.13;5040035;28;20204;-59
2023/06/04 05:17:33;;;;;;;7.13;6.32;;;;;;;16.85;95.46;96557.38;5040340;28;20229;-60
2023/06/04 05:20:11;;;;;;;7.20;6.50;;;;;;;16.80;92.01;96557.09;5040501;28;20887;-59
2023/06/04 05:22:39;;;;;;;7.55;6.82;;;;;;;16.90;92.59;96556.81;5046947;28;20199;-60
2023/06/04 05:25:08;;;;;;;8.27;6.25;;;;;;;16.93;92.36;96554.59;5045436;28;20229;-59
2023/06/04 05:27:35;;;;;;;7.28;6.07;;;;;;;17.04;92.54;96547.16;5042024;28;20238;-60
2023/06/04 05:30:02;;;;;;;7.68;6.93;;;;;;;17.03;90.80;96556.19;5039929;28;20535;-60
2023/06/04 05:32:30;;;;;;;6.68;6.05;;;;;;;17.10;90.95;96555.25;5040757;28;20204;-60
2023/06/04 05:34:58;;;;;;;7.50;6.28;;;;;;;17.16;91.14;96559.84;5040673;28;20195;-60
2023/06/04 05:37:26;;;;;;;7.00;6.40;;;;;;;17.17;93.31;96561.53;5041383;28;20265;-59
2023/06/04 05:39:55;;;;;;;6.50;5.90;;;;;;;17.26;92.51;96571.09;5047488;28;20211;-60
2023/06/04 05:42:21;;;;;;;6.93;6.22;;;;;;;17.26;92.73;96565.75;5050153;28;20685;-60
2023/06/04 05:44:48;;;;;;;6.35;5.78;;;;;;;17.31;93.23;96563.34;5047718;28;20222;-60
2023/06/04 05:47:16;;;;;;;7.25;6.55;;;;;;;17.32;89.22;96566.84;5043664;28;20219;-60
2023/06/04 05:49:43;;;;;;;7.25;6.55;;;;;;;17.27;90.98;96570.06;5044343;28;20209;-59
2023/06/04 05:52:09;;;;;;;7.18;6.40;;;;;;;17.34;90.85;96565.66;5043653;28;20827;-60
2023/06/04 05:54:36;;;;;;;6.97;6.18;;;;;;;17.38;89.58;96568.78;5043555;28;20269;-60
2023/06/04 05:57:05;;;;;;;7.15;6.45;;;;;;;17.48;89.73;96563.94;5043544;28;20200;-60
2023/06/04 05:59:33;;;;;;;7.22;6.63;;;;;;;17.40;86.70;96562.22;5043727;28;20858;-60
2023/06/04 06:01:59;;;;;;;7.68;6.45;;;;;;;17.37;86.85;96567.09;5043755;28;20200;-60
2023/06/04 06:04:26;;;;;;;7.40;6.68;;;;;;;17.31;85.51;96570.53;5043778;28;20208;-59
2023/06/04 06:06:53;;;;;;;7.03;6.38;;;;;;;17.40;85.59;96577.41;5044386;28;20335;-60
2023/06/04 06:09:20;;;;;;;6.68;6.03;;;;;;;17.38;83.93;96574.94;5043800;28;20286;-60
2023/06/04 06:11:47;;;;;;;7.40;6.70;;;;;;;17.38;89.27;96574.94;5039375;28;20239;-60
2023/06/04 06:14:15;;;;;;;7.25;6.63;;;;;;;17.41;88.03;96579.09;5036568;28;20204;-60
2023/06/04 06:16:41;;;;;;;6.75;6.05;;;;;;;17.41;87.50;96581.75;5038854;28;20204;-60
2023/06/04 06:19:08;;;;;;;7.97;6.40;;;;;;;17.42;87.05;96583.44;5038146;28;20647;-61
2023/06/04 06:21:34;;;;;;;6.97;6.07;;;;;;;17.42;92.44;96580.75;5037802;28;20215;-61
2023/06/04 06:24:00;;;;;;;7.13;6.50;;;;;;;17.46;88.54;96592.75;5036143;28;21352;-60
2023/06/04 06:26:27;;;;;;;7.78;6.85;;;;;;;17.45;85.32;96595.59;5034211;28;20224;-61
2023/06/04 06:28:53;;;;;;;7.70;6.70;;;;;;;17.47;85.86;96604.22;5034516;28;20222;-61
2023/06/04 06:31:21;;;;;;;7.70;7.10;;;;;;;17.45;85.86;96612.47;5034153;28;20203;-60
2023/06/04 06:33:48;;;;;;;8.38;7.53;;;;;;;17.40;87.63;96612.19;5033690;28;20706;-61
2023/06/04 06:36:18;;;;;;;7.78;7.13;;;;;;;17.48;86.56;96612.09;5035325;28;20253;-60
2023/06/04 06:38:44;;;;;;;8.30;7.53;;;;;;;17.42;86.46;96611.00;5035109;28;20215;-59
2023/06/04 06:41:11;;;;;;;8.63;7.22;;;;;;;17.44;88.19;96616.13;5036315;28;20200;-59
2023/06/04 06:43:38;;;;;;;7.82;7.03;;;;;;;17.42;86.53;96619.00;5035847;28;20215;-59
2023/06/04 06:46:04;;;;;;;8.38;7.47;;;;;;;17.45;86.95;96617.81;5035899;28;20259;-59
2023/06/04 06:48:32;;;;;;;7.68;6.97;;;;;;;17.49;87.46;96613.75;5034059;28;20208;-60
2023/06/04 06:50:58;;;;;;;8.57;7.32;;;;;;;17.49;89.05;96613.75;5033581;28;20220;-59
2023/06/04 06:53:25;;;;;;;6.97;6.38;;;;;;;17.56;88.78;96620.03;5033361;28;20199;-60
2023/06/04 06:55:52;;;;;;;8.18;7.10;;;;;;;17.62;88.56;96618.44;5032444;28;20200;-61
2023/06/04 06:58:18;;;;;;;8.27;7.38;;;;;;;17.64;87.64;96619.09;5032694;28;20687;-60
2023/06/04 07:00:45;;;;;;;8.40;7.55;;;;;;;17.70;87.92;96613.84;5032860;28;20281;-59
2023/06/04 07:03:11;;;;;;;7.93;6.95;;;;;;;17.77;88.20;96619.25;5033088;28;20207;-61
2023/06/04 07:05:39;;;;;;;8.35;7.55;;;;;;;17.76;86.61;96615.75;5034391;28;20223;-59
2023/06/04 07:08:05;;;;;;;9.23;8.32;;;;;;;17.65;84.43;96612.72;5034071;28;20227;-60
2023/06/04 07:10:32;;;;;;;8.60;7.80;;;;;;;17.74;84.28;96609.78;5033762;28;20529;-61
2023/06/04 07:12:59;;;;;;;8.55;7.75;;;;;;;17.81;85.08;96613.34;5043245;28;20207;-62
2023/06/04 07:15:25;;;;;;;8.27;7.47;;;;;;;17.90;84.93;96609.53;5041932;28;20226;-60
2023/06/04 07:17:53;;;;;;;8.23;7.40;;;;;;;17.98;85.62;96605.06;5042278;28;20199;-61
2023/06/04 07:20:21;;;;;;;8.85;7.00;;;;;;;18.10;84.76;96611.59;5041612;28;20195;-59
2023/06/04 07:22:48;;;;;;;8.43;7.65;;;;;;;18.15;83.30;96610.00;5042737;28;20316;-61
2023/06/04 07:25:17;;;;;;;8.52;7.70;;;;;;;18.13;80.17;96616.56;5041618;28;21331;-60
2023/06/04 07:27:44;;;;;;;10.15;8.48;;;;;;;18.19;81.39;96611.28;5042488;28;20628;-60
2023/06/04 07:30:12;;;;;;;7.28;6.57;;;;;;;18.49;82.26;96603.94;5042001;28;20636;-61
2023/06/04 07:32:39;;;;;;;8.68;7.53;;;;;;;18.73;82.76;96603.53;5043115;28;20269;-61
2023/06/04 07:35:06;;;;;;;8.32;7.60;;;;;;;19.08;79.66;96600.88;5043523;28;20212;-61
2023/06/04 07:37:33;;;;;;;10.02;8.40;;;;;;;19.65;78.00;96604.09;5044283;28;20187;-60
2023/06/04 07:40:00;;;;;;;8.68;7.38;;;;;;;19.89;77.59;96600.06;5045888;28;20207;-63
2023/06/04 07:42:27;;;;;;;8.13;7.43;;;;;;;20.19;76.02;96605.94;5045254;28;20208;-59
2023/06/04 07:44:53;;;;;;;8.45;7.47;;;;;;;20.17;73.35;96605.28;5046481;28;20621;-59
2023/06/04 07:47:20;;;;;;;8.98;7.70;;;;;;;20.21;72.29;96598.47;5045145;28;20686;-63
2023/06/04 07:49:46;;;;;;;9.38;8.48;;;;;;;20.06;71.72;96593.28;5044199;28;20204;-61
2023/06/04 07:52:13;;;;;;;7.68;6.95;;;;;;;20.15;71.81;96588.56;5044898;28;20195;-59
2023/06/04 07:54:41;;;;;;;7.80;6.93;;;;;;;20.31;73.17;96588.19;5046829;28;20195;-59
2023/06/04 07:57:10;;;;;;;8.75;7.63;;;;;;;20.30;72.75;96581.97;5044959;28;20266;-60
2023/06/04 07:59:37;;;;;;;9.43;7.72;;;;;;;20.25;71.09;96588.97;5042755;28;20206;-60
2023/06/04 08:02:03;;;;;;;7.63;7.00;;;;;;;20.33;70.08;96586.16;5041194;28;20199;-60
2023/06/04 08:04:31;;;;;;;7.40;6.70;;;;;;;20.44;71.81;96582.81;5040809;28;20200;-59
2023/06/04 08:06:57;;;;;;;8.25;7.45;;;;;;;21.03;70.63;96587.34;5042238;28;20222;-59
2023/06/04 08:09:24;;;;;;;9.23;7.72;;;;;;;21.39;65.99;96582.34;5041924;28;20221;-60
2023/06/04 08:11:51;;;;;;;8.65;7.85;;;;;;;21.82;66.40;96579.88;5035346;28;20234;-59
2023/06/04 08:14:22;;;;;;;11.30;7.78;;;;;;;22.21;66.28;96586.94;5031829;28;20203;-59
2023/06/04 08:16:48;;;;;;;8.60;7.38;;;;;;;22.25;64.98;96588.13;5031339;28;20269;-59
2023/06/04 08:19:15;;;;;;;10.35;7.95;;;;;;;22.22;64.29;96572.41;5031455;28;20200;-59
2023/06/04 08:21:42;;;;;;;8.45;7.10;;;;;;;22.22;65.85;96575.09;5031442;28;20235;-60
2023/06/04 08:24:09;;;;;;;9.27;8.45;;;;;;;21.94;64.24;96585.44;5031769;28;20291;-60
2023/06/04 08:26:36;;;;;;;8.18;7.32;;;;;;;22.08;66.76;96587.00;5030916;28;20238;-60
2023/06/04 08:29:03;;;;;;;7.68;7.07;;;;;;;22.22;64.99;96583.19;5031619;28;20215;-58
2023/06/04 08:31:31;;;;;;;8.48;6.88;;;;;;;22.24;65.83;96581.13;5030984;28;21522;-59
2023/06/04 08:33:58;;;;;;;8.27;7.53;;;;;;;22.20;65.55;96585.28;5031627;28;20200;-59
2023/06/04 08:36:25;;;;;;;10.65;8.05;;;;;;;22.85;67.19;96583.16;5031553;28;20211;-59
2023/06/04 08:38:52;;;;;;;8.45;7.65;;;;;;;23.07;65.44;96576.31;5031333;28;20211;-59
2023/06/04 08:41:23;;;;;;;9.80;8.80;;;;;;;23.19;60.70;96577.22;5031331;28;20265;-58
2023/06/04 08:43:51;;;;;;;7.82;7.18;;;;;;;23.18;64.11;96572.88;5031391;28;20203;-59
2023/06/04 08:46:18;;;;;;;7.22;6.53;;;;;;;23.63;61.13;96582.34;5030486;28;20242;-59
2023/06/04 08:48:46;;;;;;;7.95;7.22;;;;;;;23.65;58.17;96574.88;5030696;28;20639;-60
2023/06/04 08:51:13;;;;;;;8.80;8.00;;;;;;;23.69;56.67;96575.25;5031040;28;20208;-60
2023/06/04 08:53:41;;;;;;;8.48;7.65;;;;;;;24.03;57.14;96581.84;5031408;28;21340;-60
2023/06/04 08:56:07;;;;;;;7.70;7.00;;;;;;;24.34;57.79;96584.31;5031109;28;20200;-59
2023/06/04 08:58:34;;;;;;;8.20;6.88;;;;;;;24.60;57.23;96586.63;5031170;28;20204;-60
2023/06/04 09:01:01;;;;;;;8.05;6.82;;;;;;;24.96;59.27;96592.94;5030510;28;20207;-59
2023/06/04 09:03:31;;;;;;;10.02;7.82;;;;;;;25.20;57.83;96589.19;5031034;28;20228;-59
2023/06/04 09:05:59;;;;;;;7.88;6.40;;;;;;;25.39;56.76;96577.16;5031315;28;20212;-59
2023/06/04 09:08:27;;;;;;;7.20;6.60;;;;;;;25.32;55.10;96584.59;5033468;28;20969;-60
2023/06/04 09:10:55;;;;;;;7.00;5.97;;;;;;;25.06;54.56;96588.59;5034265;28;20686;-59
2023/06/04 09:13:23;;;;;;;7.18;6.57;;;;;;;25.18;56.73;96586.72;5048010;28;20210;-59
2023/06/04 09:15:59;;;;;;;7.38;6.10;;;;;;;25.28;56.89;96591.53;5045300;28;20204;-60
2023/06/04 09:18:26;;;;;;;7.28;6.68;;;;;;;25.01;54.29;96585.75;5042027;28;20286;-59
2023/06/04 09:21:03;;;;;;;7.30;6.65;;;;;;;24.65;56.64;96586.78;5043970;28;20308;-59
2023/06/04 09:23:30;;;;;;;7.47;6.70;;;;;;;24.66;56.19;96593.81;5026706;28;20203;-61
2023/06/04 09:25:56;;;;;;;6.85;6.25;;;;;;;24.58;58.81;96593.34;5044060;28;20629;-62
2023/06/04 09:28:23;;;;;;;6.85;6.07;;;;;;;24.42;58.43;96592.13;5045127;28;20203;-60
2023/06/04 09:30:53;;;;;;;7.82;7.13;;;;;;;24.14;56.88;96591.91;5045112;28;20254;-61
2023/06/04 09:33:20;;;;;;;7.68;6.88;;;;;;;23.71;59.21;96587.44;5047038;28;20196;-62
2023/06/04 09:35:54;;;;;;;8.60;7.38;;;;;;;23.55;58.67;96590.78;5048002;28;20207;-61
2023/06/04 09:38:22;;;;;;;8.88;7.85;;;;;;;23.22;59.12;96588.41;5045700;28;20207;-61
2023/06/04 09:40:49;;;;;;;8.18;7.15;;;;;;;23.16;62.08;96585.78;5043637;28;20214;-61
2023/06/04 09:43:22;;;;;;;8.85;6.82;;;;;;;23.14;60.39;96591.38;5044945;28;20234;-61
2023/06/04 09:45:48;;;;;;;7.15;6.65;;;;;;;23.06;60.10;96588.97;5043225;28;20632;-60
2023/06/04 09:48:20;;;;;;;8.68;7.63;;;;;;;22.66;60.62;96591.16;5044213;28;20554;-61
2023/06/04 09:50:46;;;;;;;8.45;7.15;;;;;;;22.51;60.65;96585.28;5044238;28;20211;-63
2023/06/04 09:53:17;;;;;;;9.65;8.07;;;;;;;22.47;63.33;96589.44;5043881;28;20199;-61
2023/06/04 09:55:44;;;;;;;8.50;7.72;;;;;;;22.39;62.23;96581.63;5043514;28;20619;-61
2023/06/04 09:58:13;;;;;;;8.55;7.75;;;;;;;22.31;63.48;96582.72;5043806;28;20196;-60
2023/06/04 10:00:39;;;;;;;8.30;7.50;;;;;;;22.25;64.75;96596.22;5044083;28;20231;-60
2023/06/04 10:03:06;;;;;;;8.35;7.55;;;;;;;22.15;64.15;96595.88;5043739;28;20598;-60
2023/06/04 10:05:34;;;;;;;7.38;6.68;;;;;;;22.29;66.69;96595.56;5043867;28;20203;-61
2023/06/04 10:08:00;;;;;;;8.00;7.30;;;;;;;22.24;65.60;96591.91;5043636;28;20223;-60
2023/06/04 10:10:27;;;;;;;8.07;7.38;;;;;;;22.10;65.79;96584.94;5043530;28;20569;-61
2023/06/04 10:13:00;;;;;;;8.45;7.03;;;;;;;22.29;67.81;96589.34;5033461;28;20301;-61
2023/06/04 10:15:27;;;;;;;7.53;6.60;;;;;;;22.33;65.63;96585.19;5033768;28;20207;-61
2023/06/04 10:17:55;;;;;;;8.15;7.38;;;;;;;22.39;66.99;96578.91;5033586;28;20639;-61
2023/06/04 10:20:21;;;;;;;9.35;8.40;;;;;;;22.43;64.57;96580.13;5033399;28;20208;-60
2023/06/04 10:22:49;;;;;;;7.90;7.10;;;;;;;22.38;65.34;96574.59;5033760;28;20302;-61
2023/06/04 10:25:16;;;;;;;7.65;6.40;;;;;;;22.39;64.52;96578.91;5033273;28;20204;-60
2023/06/04 10:27:44;;;;;;;8.05;7.30;;;;;;;22.45;65.42;96578.06;5033937;28;20594;-61
2023/06/04 10:30:13;;;;;;;7.70;6.80;;;;;;;22.64;64.95;96577.06;5032030;28;20212;-61
2023/06/04 10:32:40;;;;;;;7.65;6.80;;;;;;;22.75;66.12;96567.47;5033567;28;20204;-60
2023/06/04 10:35:07;;;;;;;7.80;7.18;;;;;;;22.84;63.23;96570.72;5033416;28;20525;-61
2023/06/04 10:37:34;;;;;;;7.05;6.45;;;;;;;23.12;64.21;96562.97;5033447;28;20200;-63
2023/06/04 10:40:01;;;;;;;8.38;7.55;;;;;;;22.99;64.48;96568.50;5033157;28;20207;-61
2023/06/04 10:42:38;;;;;;;7.28;6.68;;;;;;;23.44;63.83;96567.22;5033652;28;20299;-61
2023/06/04 10:45:06;;;;;;;6.55;6.00;;;;;;;23.94;61.33;96561.63;5033139;28;20207;-62
2023/06/04 10:47:37;;;;;;;6.82;6.20;;;;;;;24.31;56.79;96563.16;5033259;28;20232;-61
2023/06/04 10:50:11;;;;;;;7.00;6.10;;;;;;;24.42;56.75;96558.84;5032730;28;20636;-60
2023/06/04 10:52:38;;;;;;;7.60;6.32;;;;;;;24.87;55.63;96559.19;5033251;28;20246;-61
2023/06/04 10:55:06;;;;;;;6.10;5.60;;;;;;;25.14;55.41;96547.66;5032765;28;20306;-62
2023/06/04 10:57:33;;;;;;;7.13;6.43;;;;;;;25.03;54.74;96553.06;5032945;28;20200;-61
2023/06/04 11:00:00;;;;;;;7.25;6.53;;;;;;;24.92;52.92;96551.19;5032714;28;20203;-61
2023/06/04 11:02:27;;;;;;;6.63;6.00;;;;;;;25.01;53.96;96547.88;5033262;28;20784;-62
2023/06/04 11:05:03;;;;;;;6.38;5.80;;;;;;;25.02;54.80;96549.53;5032490;28;20207;-61
2023/06/04 11:07:29;;;;;;;6.72;6.13;;;;;;;24.90;52.95;96550.59;5032506;28;20235;-61
2023/06/04 11:09:56;;;;;;;7.47;6.50;;;;;;;24.64;53.11;96552.66;5032258;28;20258;-61
2023/06/04 11:12:22;;;;;;;6.80;6.20;;;;;;;24.53;56.05;96556.19;5032377;28;20696;-61
2023/06/04 11:14:55;;;;;;;7.00;6.45;;;;;;;24.43;55.43;96555.09;5032769;28;20219;-61
2023/06/04 11:17:22;;;;;;;7.03;6.32;;;;;;;24.50;55.43;96551.25;5032692;28;20620;-61
2023/06/04 11:19:48;;;;;;;5.57;5.07;;;;;;;24.66;57.67;96547.84;5032698;28;20636;-60
2023/06/04 11:22:16;;;;;;;9.00;6.70;;;;;;;24.90;59.99;96534.38;5032559;28;20291;-62
2023/06/04 11:24:43;;;;;;;6.93;6.32;;;;;;;25.31;59.54;96536.91;5032999;28;20208;-60
2023/06/04 11:27:09;;;;;;;6.18;5.75;;;;;;;25.67;56.13;96536.63;5032473;28;20227;-61
2023/06/04 11:29:36;;;;;;;6.90;6.20;;;;;;;26.10;53.21;96541.53;5032648;28;20207;-60
2023/06/04 11:32:02;;;;;;;6.05;5.32;;;;;;;26.35;52.61;96533.06;5035226;28;20215;-61